Time;durP1;ratioP1;P1;durP2;ratioP2;P2;SDS_P1;SDS_P2;PMS_P1;PMS_P2;Temp;Humidity;BMP_temperature;BMP_pressure;BME280_temperature;BME280_humidity;BME280_pressure;Samples;Min_cycle;Max_cycle;Signal;HPM_P1;HPM_P2
2024/01/20 00:01:59;;;;;;;23.97;13.10;;;;;;;0.00;98.33;101528.44;5022685;28;20202;-74
2024/01/20 00:04:26;;;;;;;24.50;13.77;;;;;;;-0.01;98.09;101529.31;5024038;28;20213;-74
2024/01/20 00:06:52;;;;;;;25.20;14.10;;;;;;;0.00;97.96;101529.28;5021059;28;20233;-74
2024/01/20 00:09:19;;;;;;;23.63;13.10;;;;;;;0.00;98.04;101531.06;5026047;28;20201;-74
2024/01/20 00:11:45;;;;;;;24.27;13.50;;;;;;;-0.03;97.91;101534.56;5016535;28;20199;-74
2024/01/20 00:14:12;;;;;;;22.33;12.80;;;;;;;0.00;97.91;101531.91;5017132;28;20234;-74
2024/01/20 00:16:38;;;;;;;23.90;12.90;;;;;;;0.00;97.91;101544.16;5018237;28;20217;-74
2024/01/20 00:19:06;;;;;;;19.10;13.07;;;;;;;0.00;97.80;101539.75;5028430;28;20223;-74
2024/01/20 00:21:32;;;;;;;20.30;13.70;;;;;;;0.02;97.84;101550.22;5026498;28;20214;-74
2024/01/20 00:23:59;;;;;;;23.50;13.03;;;;;;;0.02;97.89;101554.59;5019260;28;20625;-74
2024/01/20 00:26:25;;;;;;;26.50;14.17;;;;;;;0.00;97.53;101562.50;5020920;28;20259;-74
2024/01/20 00:28:52;;;;;;;28.73;13.43;;;;;;;0.03;97.56;101572.91;5016647;28;20198;-74
2024/01/20 00:31:18;;;;;;;20.00;12.33;;;;;;;0.03;98.03;101557.22;5017652;28;20550;-73
2024/01/20 00:33:45;;;;;;;19.83;12.03;;;;;;;0.05;97.93;101558.06;5013765;28;20551;-75
2024/01/20 00:36:12;;;;;;;21.43;13.67;;;;;;;0.07;97.75;101565.91;5009024;28;20596;-74
2024/01/20 00:38:41;;;;;;;20.37;13.00;;;;;;;0.06;97.53;101562.44;5014991;28;20222;-74
2024/01/20 00:41:08;;;;;;;21.30;12.00;;;;;;;0.09;97.32;101569.41;5019516;28;20207;-74
2024/01/20 00:43:34;;;;;;;23.37;13.93;;;;;;;0.07;97.50;101564.16;5023183;28;20210;-74
2024/01/20 00:46:02;;;;;;;23.13;13.33;;;;;;;0.04;97.60;101566.81;5019045;28;20225;-74
2024/01/20 00:48:29;;;;;;;21.13;12.17;;;;;;;0.03;98.39;101566.81;5017912;28;20199;-74
2024/01/20 00:50:55;;;;;;;21.33;12.20;;;;;;;0.05;98.25;101559.81;5024028;28;20202;-74
2024/01/20 00:53:23;;;;;;;25.47;13.40;;;;;;;0.04;97.97;101565.94;5011426;28;20237;-75
2024/01/20 00:55:49;;;;;;;19.40;12.67;;;;;;;0.00;97.88;101570.34;5009712;28;20215;-75
2024/01/20 00:58:16;;;;;;;27.50;13.77;;;;;;;0.03;97.84;101559.81;5020276;28;20238;-72
2024/01/20 01:00:42;;;;;;;23.30;13.80;;;;;;;0.06;98.12;101570.28;5017100;28;20206;-74
2024/01/20 01:03:09;;;;;;;23.53;13.87;;;;;;;0.07;97.69;101576.41;5024190;28;20194;-73
2024/01/20 01:05:35;;;;;;;20.53;13.10;;;;;;;0.06;98.13;101572.03;5033632;28;20222;-73
2024/01/20 01:08:02;;;;;;;21.00;12.90;;;;;;;0.06;98.02;101574.66;5023019;28;20896;-74
2024/01/20 01:10:30;;;;;;;24.57;13.67;;;;;;;0.08;97.96;101573.78;5013994;28;20225;-73
2024/01/20 01:12:56;;;;;;;21.73;13.13;;;;;;;0.12;97.75;101570.25;5021659;28;20229;-74
2024/01/20 01:15:23;;;;;;;17.67;12.13;;;;;;;0.15;97.80;101565.00;5011794;28;20207;-73
2024/01/20 01:17:49;;;;;;;22.03;13.47;;;;;;;0.14;97.78;101565.88;5019936;28;20233;-75
2024/01/20 01:20:15;;;;;;;20.53;13.30;;;;;;;0.13;97.87;101566.78;5020948;28;20699;-74
2024/01/20 01:22:42;;;;;;;21.70;14.50;;;;;;;0.16;97.72;101568.50;5014333;28;20229;-72
2024/01/20 01:25:09;;;;;;;23.33;12.97;;;;;;;0.14;97.98;101575.50;5009610;28;20282;-74
2024/01/20 01:27:37;;;;;;;19.33;12.70;;;;;;;0.14;98.14;101585.97;5020077;28;20767;-76
2024/01/20 01:30:04;;;;;;;20.67;13.00;;;;;;;0.14;97.68;101579.00;5016072;28;20206;-74
2024/01/20 01:32:29;;;;;;;21.23;13.30;;;;;;;0.10;98.09;101585.13;5012264;28;20194;-74
2024/01/20 01:34:56;;;;;;;23.73;14.00;;;;;;;0.12;97.80;101601.69;5021456;28;20209;-75
2024/01/20 01:37:21;;;;;;;22.27;14.80;;;;;;;0.11;97.93;101599.94;5012395;28;20231;-74
2024/01/20 01:39:48;;;;;;;22.57;13.70;;;;;;;0.14;98.12;101605.19;5015683;28;20529;-74
2024/01/20 01:42:15;;;;;;;22.77;12.93;;;;;;;0.09;98.37;101601.72;5017420;28;20728;-74
2024/01/20 01:44:43;;;;;;;19.77;13.43;;;;;;;0.09;98.24;101601.72;5010379;28;20207;-73
2024/01/20 01:47:10;;;;;;;24.03;13.23;;;;;;;0.10;97.84;101603.44;5020892;28;20594;-74
2024/01/20 01:49:37;;;;;;;20.83;12.20;;;;;;;0.10;97.41;101592.09;5009332;28;20210;-74
2024/01/20 01:52:03;;;;;;;24.13;13.17;;;;;;;0.09;97.60;101596.47;5008097;28;20203;-73
2024/01/20 01:54:30;;;;;;;26.40;12.90;;;;;;;0.11;97.71;101604.31;5013388;28;20226;-74
2024/01/20 01:56:59;;;;;;;24.17;13.90;;;;;;;0.08;97.53;101620.03;5023545;28;20230;-74
2024/01/20 01:59:28;;;;;;;24.30;13.20;;;;;;;0.03;97.80;101621.81;5022313;28;20218;-74
2024/01/20 02:01:56;;;;;;;24.30;13.97;;;;;;;-0.01;98.23;101618.34;5016973;28;20210;-74
2024/01/20 02:04:23;;;;;;;15.70;10.17;;;;;;;0.02;98.37;101620.94;5022195;28;20213;-74
2024/01/20 02:06:49;;;;;;;26.90;14.80;;;;;;;0.00;98.03;101627.97;5017191;28;20230;-74
2024/01/20 02:09:17;;;;;;;25.53;13.27;;;;;;;-0.01;98.64;101629.69;5028720;28;20202;-74
2024/01/20 02:11:44;;;;;;;27.47;15.23;;;;;;;-0.05;98.81;101625.34;5022019;28;20199;-74
2024/01/20 02:14:11;;;;;;;24.50;15.20;;;;;;;-0.04;98.85;101627.09;5019317;28;20705;-76
2024/01/20 02:16:37;;;;;;;30.63;15.33;;;;;;;-0.03;98.95;101627.97;5013190;28;20248;-75
2024/01/20 02:19:05;;;;;;;27.50;15.53;;;;;;;0.00;98.63;101626.19;5024341;28;20233;-73
2024/01/20 02:21:32;;;;;;;28.10;15.33;;;;;;;-0.02;98.83;101633.19;5015045;28;20206;-74
2024/01/20 02:24:01;;;;;;;28.03;15.27;;;;;;;-0.06;98.48;101623.59;5010128;28;20679;-75
2024/01/20 02:26:29;;;;;;;32.27;17.27;;;;;;;-0.05;98.80;101630.59;5012792;28;20219;-73
2024/01/20 02:28:56;;;;;;;29.13;16.53;;;;;;;-0.08;99.13;101635.84;5022511;28;20197;-75
2024/01/20 02:31:22;;;;;;;26.07;15.23;;;;;;;-0.11;99.25;101641.06;5022721;28;20206;-74
2024/01/20 02:33:49;;;;;;;28.47;16.90;;;;;;;-0.09;99.11;101622.75;5035619;28;20202;-76
2024/01/20 02:36:15;;;;;;;30.40;16.03;;;;;;;-0.12;99.50;101636.72;5027325;28;20233;-75
2024/01/20 02:38:42;;;;;;;28.37;15.87;;;;;;;-0.13;99.50;101627.13;5033151;28;20226;-75
2024/01/20 02:41:11;;;;;;;27.87;15.30;;;;;;;-0.09;99.37;101627.97;5033432;28;20218;-74
2024/01/20 02:43:37;;;;;;;24.60;15.30;;;;;;;-0.10;99.65;101631.47;5035455;28;20191;-75
2024/01/20 02:46:04;;;;;;;29.73;15.27;;;;;;;-0.10;99.57;101634.09;5030429;28;20231;-75
2024/01/20 02:48:31;;;;;;;26.47;14.43;;;;;;;-0.13;100.00;101629.72;5031157;28;20661;-74
2024/01/20 02:50:57;;;;;;;32.97;16.23;;;;;;;-0.10;99.94;101634.09;5027636;28;20205;-75
2024/01/20 02:53:25;;;;;;;33.10;16.97;;;;;;;-0.09;100.00;101638.44;5031301;28;20221;-75
2024/01/20 02:55:52;;;;;;;29.57;16.40;;;;;;;-0.12;100.00;101641.94;5027544;28;20217;-75
2024/01/20 02:58:19;;;;;;;29.90;15.77;;;;;;;-0.10;100.00;101642.81;5028715;28;20233;-75
2024/01/20 03:00:46;;;;;;;35.57;16.93;;;;;;;-0.10;100.00;101637.59;5033115;28;20198;-76
2024/01/20 03:03:12;;;;;;;29.03;16.17;;;;;;;-0.07;100.00;101642.81;5028603;28;20856;-75
2024/01/20 03:05:39;;;;;;;29.20;15.67;;;;;;;-0.06;100.00;101647.16;5030695;28;20222;-76
2024/01/20 03:08:06;;;;;;;29.57;15.83;;;;;;;-0.05;100.00;101641.06;5035558;28;20209;-74
2024/01/20 03:10:32;;;;;;;26.37;15.87;;;;;;;-0.01;100.00;101642.78;5024639;28;20202;-73
2024/01/20 03:12:59;;;;;;;28.07;15.57;;;;;;;0.00;100.00;101643.66;5034983;28;20660;-74
2024/01/20 03:15:28;;;;;;;31.90;16.77;;;;;;;0.02;100.00;101644.50;5030061;28;20198;-74
2024/01/20 03:17:54;;;;;;;31.47;17.50;;;;;;;0.03;100.00;101642.75;5022001;28;20226;-74
2024/01/20 03:20:21;;;;;;;29.47;16.83;;;;;;;0.03;100.00;101643.63;5026754;28;20210;-72
2024/01/20 03:22:47;;;;;;;29.83;16.23;;;;;;;0.05;100.00;101627.91;5028525;28;20200;-75
2024/01/20 03:25:14;;;;;;;29.77;15.90;;;;;;;0.10;100.00;101632.25;5021803;28;20209;-74
2024/01/20 03:27:40;;;;;;;30.37;16.80;;;;;;;0.06;100.00;101642.75;5028252;28;20206;-74
2024/01/20 03:30:08;;;;;;;26.23;14.33;;;;;;;0.11;100.00;101641.84;5035045;28;20198;-73
2024/01/20 03:32:36;;;;;;;28.37;15.33;;;;;;;0.13;100.00;101652.34;5032325;28;20214;-73
2024/01/20 03:35:02;;;;;;;30.03;16.93;;;;;;;0.10;100.00;101645.34;5033701;28;20573;-75
2024/01/20 03:37:29;;;;;;;28.93;15.60;;;;;;;0.14;100.00;101657.56;5030450;28;20859;-74
2024/01/20 03:39:56;;;;;;;19.67;12.17;;;;;;;0.18;99.91;101655.81;5035423;28;20249;-75
2024/01/20 03:42:22;;;;;;;26.43;15.73;;;;;;;0.18;99.85;101666.28;5030790;28;20802;-76
2024/01/20 03:44:49;;;;;;;30.10;14.97;;;;;;;0.18;99.60;101676.78;5032998;28;20212;-75
2024/01/20 03:47:15;;;;;;;27.57;14.70;;;;;;;0.18;99.68;101679.38;5030180;28;20229;-75
2024/01/20 03:49:43;;;;;;;25.10;14.83;;;;;;;0.17;99.61;101677.66;5026224;28;20195;-75
2024/01/20 03:52:12;;;;;;;24.20;14.47;;;;;;;0.15;99.64;101690.75;5030866;28;20211;-75
2024/01/20 03:54:38;;;;;;;25.80;14.47;;;;;;;0.15;99.83;101689.88;5025312;28;20203;-74
2024/01/20 03:57:05;;;;;;;27.83;15.57;;;;;;;0.15;99.71;101687.25;5025721;28;20235;-76
2024/01/20 03:59:31;;;;;;;27.07;13.90;;;;;;;0.17;99.63;101689.00;5026008;28;20221;-75
2024/01/20 04:01:58;;;;;;;27.70;15.27;;;;;;;0.22;99.18;101681.97;5028596;28;20218;-75
2024/01/20 04:04:24;;;;;;;21.33;13.07;;;;;;;0.22;98.96;101681.97;5032561;28;20213;-75
2024/01/20 04:06:52;;;;;;;21.70;12.87;;;;;;;0.22;99.00;101676.72;5025701;28;20214;-76
2024/01/20 04:09:19;;;;;;;26.40;13.17;;;;;;;0.20;98.70;101690.69;5031594;28;20198;-75
2024/01/20 04:11:46;;;;;;;27.83;14.40;;;;;;;0.19;98.74;101691.56;5026946;28;20199;-75
2024/01/20 04:14:12;;;;;;;28.63;14.60;;;;;;;0.13;99.10;101694.25;5030599;28;20661;-74
2024/01/20 04:16:39;;;;;;;21.60;13.60;;;;;;;0.14;99.16;101703.84;5026873;28;20591;-72
2024/01/20 04:19:05;;;;;;;21.37;13.67;;;;;;;0.16;99.01;101699.47;5031298;28;20761;-73
2024/01/20 04:21:32;;;;;;;21.60;13.17;;;;;;;0.17;98.93;101703.84;5025261;28;20206;-74
2024/01/20 04:24:00;;;;;;;20.87;13.33;;;;;;;0.15;98.86;101697.72;5028803;28;20962;-74
2024/01/20 04:26:26;;;;;;;22.87;13.33;;;;;;;0.16;98.63;101708.22;5025595;28;20222;-74
2024/01/20 04:28:52;;;;;;;21.77;11.50;;;;;;;0.18;98.50;101706.41;5022789;28;20193;-74
2024/01/20 04:31:19;;;;;;;19.60;11.77;;;;;;;0.16;98.19;101699.47;5031908;28;20193;-74
2024/01/20 04:33:45;;;;;;;21.13;12.70;;;;;;;0.13;97.98;101705.59;5024674;28;20206;-74
2024/01/20 04:36:12;;;;;;;19.03;11.83;;;;;;;0.15;97.31;101701.22;5031599;28;20253;-74
2024/01/20 04:38:40;;;;;;;20.40;11.80;;;;;;;0.14;97.42;101712.56;5030569;28;20229;-74
2024/01/20 04:41:07;;;;;;;18.03;11.90;;;;;;;0.15;97.11;101710.81;5026988;28;20214;-74
2024/01/20 04:43:34;;;;;;;16.97;11.77;;;;;;;0.13;97.01;101704.72;5025631;28;20218;-74
2024/01/20 04:46:00;;;;;;;17.17;11.60;;;;;;;0.07;97.07;101702.13;5026995;28;20225;-74
2024/01/20 04:48:27;;;;;;;17.03;10.33;;;;;;;0.07;97.00;101704.72;5031274;28;20197;-74
2024/01/20 04:50:53;;;;;;;18.60;11.20;;;;;;;0.04;97.17;101712.59;5025892;28;20201;-73
2024/01/20 04:53:20;;;;;;;20.10;10.37;;;;;;;0.04;97.00;101723.94;5028683;28;20284;-75
2024/01/20 04:55:46;;;;;;;19.20;11.40;;;;;;;0.02;97.14;101720.44;5023405;28;20226;-75
2024/01/20 04:58:14;;;;;;;15.33;10.93;;;;;;;0.00;97.13;101723.06;5030679;28;20241;-75
2024/01/20 05:00:41;;;;;;;17.87;10.53;;;;;;;-0.01;96.90;101730.97;5026887;28;20197;-73
2024/01/20 05:03:07;;;;;;;15.63;9.97;;;;;;;-0.05;97.05;101722.25;5026496;28;20729;-75
2024/01/20 05:05:34;;;;;;;18.73;10.83;;;;;;;-0.10;97.23;101724.00;5028530;28;21611;-75
2024/01/20 05:08:00;;;;;;;17.07;9.83;;;;;;;-0.11;96.98;101722.25;5025714;28;20209;-75
2024/01/20 05:10:27;;;;;;;17.47;10.57;;;;;;;-0.13;96.86;101724.00;5019258;28;20222;-75
2024/01/20 05:12:53;;;;;;;13.20;9.17;;;;;;;-0.15;97.04;101730.97;5018909;28;20708;-75
2024/01/20 05:15:21;;;;;;;12.97;9.03;;;;;;;-0.15;96.54;101730.97;5024548;28;20199;-74
2024/01/20 05:17:47;;;;;;;15.10;9.90;;;;;;;-0.19;96.37;101731.88;5016434;28;20662;-75
2024/01/20 05:20:15;;;;;;;18.17;9.73;;;;;;;-0.23;96.67;101735.38;5018230;28;20221;-76
2024/01/20 05:22:41;;;;;;;16.77;9.20;;;;;;;-0.20;96.34;101732.75;5024582;28;20214;-75
2024/01/20 05:25:08;;;;;;;14.37;9.23;;;;;;;-0.21;95.92;101738.00;5014491;28;20199;-73
2024/01/20 05:27:35;;;;;;;13.80;8.83;;;;;;;-0.24;95.69;101738.00;5018029;28;20214;-74
2024/01/20 05:30:01;;;;;;;17.90;10.00;;;;;;;-0.31;95.62;101742.34;5017086;28;20199;-76
2024/01/20 05:32:29;;;;;;;15.53;8.80;;;;;;;-0.31;95.75;101744.97;5015749;28;20237;-75
2024/01/20 05:34:56;;;;;;;14.33;9.13;;;;;;;-0.36;95.73;101744.13;5016633;28;20214;-75
2024/01/20 05:37:22;;;;;;;17.43;9.37;;;;;;;-0.35;95.64;101745.84;5016818;28;20230;-75
2024/01/20 05:39:49;;;;;;;15.57;9.33;;;;;;;-0.37;95.43;101739.75;5013604;28;20238;-74
2024/01/20 05:42:15;;;;;;;16.07;9.70;;;;;;;-0.37;95.39;101742.38;5019847;28;20194;-73
2024/01/20 05:44:41;;;;;;;16.80;9.07;;;;;;;-0.39;94.99;101745.00;5015089;28;20213;-75
2024/01/20 05:47:08;;;;;;;14.00;8.80;;;;;;;-0.46;95.61;101758.94;5018408;28;20229;-75
2024/01/20 05:49:36;;;;;;;14.00;8.10;;;;;;;-0.41;95.02;101758.94;5017320;28;20207;-74
2024/01/20 05:52:02;;;;;;;16.03;9.30;;;;;;;-0.42;94.96;101767.69;5022128;28;20233;-75
2024/01/20 05:54:29;;;;;;;16.23;9.07;;;;;;;-0.41;94.83;101765.06;5022435;28;20282;-75
2024/01/20 05:56:55;;;;;;;14.90;9.27;;;;;;;-0.47;94.88;101778.13;5027924;28;20226;-75
2024/01/20 05:59:22;;;;;;;13.40;8.50;;;;;;;-0.50;94.92;101774.63;5028492;28;20223;-74
2024/01/20 06:01:50;;;;;;;18.37;9.30;;;;;;;-0.51;94.98;101770.28;5028994;28;20212;-75
2024/01/20 06:04:17;;;;;;;13.37;8.07;;;;;;;-0.55;94.77;101779.91;5026674;28;20202;-75
2024/01/20 06:06:44;;;;;;;13.43;8.53;;;;;;;-0.54;94.70;101780.78;5028503;28;20235;-72
2024/01/20 06:09:11;;;;;;;14.27;8.17;;;;;;;-0.56;94.54;101783.38;5034342;28;20202;-74
2024/01/20 06:11:37;;;;;;;12.43;8.00;;;;;;;-0.57;94.58;101780.78;5029712;28;20202;-74
2024/01/20 06:14:04;;;;;;;13.63;7.37;;;;;;;-0.58;94.39;101779.03;5024447;28;20197;-73
2024/01/20 06:16:30;;;;;;;12.50;8.33;;;;;;;-0.60;94.28;101788.59;5031886;28;20225;-74
2024/01/20 06:18:57;;;;;;;13.57;8.20;;;;;;;-0.59;94.48;101792.97;5032215;28;20742;-75
2024/01/20 06:21:23;;;;;;;16.47;8.70;;;;;;;-0.58;94.19;101792.09;5035696;28;20204;-74
2024/01/20 06:23:51;;;;;;;13.47;7.80;;;;;;;-0.57;93.83;101792.09;5035302;28;20677;-75
2024/01/20 06:26:18;;;;;;;15.77;8.43;;;;;;;-0.61;94.19;101798.19;5030509;28;20218;-74
2024/01/20 06:28:45;;;;;;;18.43;8.87;;;;;;;-0.67;94.22;101799.94;5024675;28;20201;-74
2024/01/20 06:31:22;;;;;;;12.10;7.57;;;;;;;-0.67;94.00;101799.94;5037206;28;20548;-74
2024/01/20 06:33:48;;;;;;;17.03;8.63;;;;;;;-0.72;94.06;101807.78;5032021;28;20206;-74
2024/01/20 06:36:14;;;;;;;16.70;8.27;;;;;;;-0.74;94.27;101799.94;5030554;28;20233;-73
2024/01/20 06:38:41;;;;;;;16.40;10.60;;;;;;;-0.76;94.50;101811.28;5033787;28;20205;-75
2024/01/20 06:41:09;;;;;;;14.40;8.33;;;;;;;-0.74;94.14;101807.78;5026158;28;20195;-74
2024/01/20 06:43:35;;;;;;;17.40;8.30;;;;;;;-0.74;93.83;101799.94;5031287;28;20210;-75
2024/01/20 06:46:02;;;;;;;14.63;8.37;;;;;;;-0.79;93.83;101806.91;5031761;28;20318;-74
2024/01/20 06:48:32;;;;;;;13.87;8.33;;;;;;;-0.79;94.03;101806.91;5028469;28;20205;-74
2024/01/20 06:50:59;;;;;;;15.67;7.77;;;;;;;-0.79;93.97;101821.72;5031031;28;20194;-74
2024/01/20 06:53:26;;;;;;;17.07;7.60;;;;;;;-0.74;93.55;101820.00;5030082;28;20209;-74
2024/01/20 06:55:52;;;;;;;15.63;9.00;;;;;;;-0.74;93.68;101840.91;5036599;28;20228;-74
2024/01/20 06:58:20;;;;;;;15.37;8.47;;;;;;;-0.76;93.88;101827.84;5032704;28;20206;-74
2024/01/20 07:00:47;;;;;;;15.90;9.50;;;;;;;-0.82;93.91;101822.59;5030479;28;20225;-73
2024/01/20 07:03:15;;;;;;;15.80;9.60;;;;;;;-0.82;94.13;101827.81;5030378;28;20199;-74
2024/01/20 07:05:41;;;;;;;16.53;9.90;;;;;;;-0.84;94.07;101833.91;5029712;28;20217;-74
2024/01/20 07:08:08;;;;;;;17.10;8.53;;;;;;;-0.86;94.32;101836.50;5029703;28;22346;-74
2024/01/20 07:10:34;;;;;;;15.03;8.60;;;;;;;-0.87;94.30;101831.28;5027792;28;20210;-75
2024/01/20 07:13:01;;;;;;;18.20;9.07;;;;;;;-0.84;94.01;101829.56;5028477;28;20197;-74
2024/01/20 07:15:29;;;;;;;16.70;8.93;;;;;;;-0.86;94.23;101849.59;5030632;28;20202;-75
2024/01/20 07:17:56;;;;;;;17.87;8.77;;;;;;;-0.87;94.38;101824.31;5032911;28;20312;-74
2024/01/20 07:20:22;;;;;;;12.77;8.10;;;;;;;-0.87;94.30;101826.06;5032714;28;20222;-74
2024/01/20 07:22:49;;;;;;;16.43;9.47;;;;;;;-0.91;94.43;101840.88;5029422;28;20703;-74
2024/01/20 07:25:16;;;;;;;14.27;9.13;;;;;;;-0.92;94.62;101841.75;5033624;28;20206;-74
2024/01/20 07:27:43;;;;;;;16.77;9.60;;;;;;;-0.90;94.59;101842.63;5025803;28;20284;-74
2024/01/20 07:30:10;;;;;;;17.20;10.20;;;;;;;-0.92;94.73;101838.25;5032813;28;20202;-76
2024/01/20 07:32:40;;;;;;;16.53;8.93;;;;;;;-0.91;94.55;101846.13;5033339;28;20207;-74
2024/01/20 07:35:08;;;;;;;17.57;9.27;;;;;;;-0.90;94.79;101850.47;5026130;28;20199;-74
2024/01/20 07:37:36;;;;;;;17.53;10.13;;;;;;;-0.96;94.54;101853.06;5035494;28;20337;-74
2024/01/20 07:40:03;;;;;;;17.13;8.37;;;;;;;-0.93;94.97;101845.22;5028742;28;20233;-74
2024/01/20 07:42:30;;;;;;;14.07;8.23;;;;;;;-0.97;94.57;101853.94;5031166;28;20206;-74
2024/01/20 07:44:56;;;;;;;18.40;9.90;;;;;;;-0.98;94.89;101867.00;5028719;28;20206;-75
2024/01/20 07:47:23;;;;;;;15.37;8.57;;;;;;;-0.98;95.00;101865.25;5031755;28;20237;-74
2024/01/20 07:49:51;;;;;;;17.90;10.03;;;;;;;-0.98;94.79;101846.94;5027668;28;20202;-74
2024/01/20 07:52:17;;;;;;;18.37;9.67;;;;;;;-0.97;94.88;101856.53;5031189;28;20256;-74
2024/01/20 07:54:44;;;;;;;16.03;9.30;;;;;;;-1.00;95.26;101864.38;5033085;28;20206;-74
2024/01/20 07:57:10;;;;;;;18.50;9.33;;;;;;;-0.99;95.15;101879.19;5028449;28;20225;-75
2024/01/20 07:59:37;;;;;;;15.53;8.70;;;;;;;-0.97;94.75;101868.75;5032470;28;20218;-75
2024/01/20 08:02:04;;;;;;;15.73;9.37;;;;;;;-0.99;94.92;101883.56;5029425;28;20205;-74
2024/01/20 08:04:30;;;;;;;15.37;9.03;;;;;;;-1.03;95.32;101879.16;5025751;28;20656;-74
2024/01/20 08:06:58;;;;;;;22.87;10.57;;;;;;;-1.05;95.02;101876.53;5028033;28;20217;-74
2024/01/20 08:09:24;;;;;;;16.80;8.50;;;;;;;-0.99;95.25;101883.56;5028962;28;20206;-74
2024/01/20 08:11:51;;;;;;;17.13;9.67;;;;;;;-0.99;95.28;101884.44;5029589;28;20864;-74
2024/01/20 08:14:17;;;;;;;14.77;9.97;;;;;;;-0.96;95.03;101897.53;5027445;28;20209;-75
2024/01/20 08:16:44;;;;;;;17.63;9.80;;;;;;;-0.96;94.99;101887.06;5030848;28;20558;-73
2024/01/20 08:19:10;;;;;;;16.73;9.13;;;;;;;-0.93;95.04;101887.06;5028074;28;20672;-75
2024/01/20 08:21:37;;;;;;;19.43;8.20;;;;;;;-0.92;95.13;101895.78;5031032;28;20701;-75
2024/01/20 08:24:05;;;;;;;17.43;9.03;;;;;;;-0.88;94.53;101906.25;5026356;28;20570;-75
2024/01/20 08:26:32;;;;;;;15.13;8.73;;;;;;;-0.86;94.59;101895.78;5028776;28;20299;-74
2024/01/20 08:28:59;;;;;;;17.00;8.90;;;;;;;-0.85;94.84;101906.25;5022985;28;20269;-74
2024/01/20 08:31:27;;;;;;;16.67;9.87;;;;;;;-0.84;94.72;101891.44;5026003;28;20199;-74
2024/01/20 08:33:54;;;;;;;18.03;8.83;;;;;;;-0.83;94.51;101907.16;5031664;28;20205;-75
2024/01/20 08:36:20;;;;;;;14.10;9.07;;;;;;;-0.79;94.02;101908.91;5029383;28;20596;-75
2024/01/20 08:38:48;;;;;;;13.17;8.37;;;;;;;-0.76;94.38;101908.94;5023288;28;20654;-75
2024/01/20 08:41:16;;;;;;;14.70;9.13;;;;;;;-0.73;94.13;101915.91;5025570;28;20230;-74
2024/01/20 08:43:44;;;;;;;14.67;9.10;;;;;;;-0.71;94.16;101907.16;5029855;28;20201;-75
2024/01/20 08:46:11;;;;;;;17.27;8.93;;;;;;;-0.72;93.92;101910.66;5028520;28;20489;-74
2024/01/20 08:48:37;;;;;;;14.67;8.53;;;;;;;-0.70;94.07;101916.78;5029052;28;20217;-74
2024/01/20 08:51:04;;;;;;;16.10;8.27;;;;;;;-0.62;93.68;101919.41;5027876;28;20221;-75
2024/01/20 08:53:32;;;;;;;14.03;9.57;;;;;;;-0.59;93.10;101923.78;5022068;28;20234;-74
2024/01/20 08:55:59;;;;;;;13.87;9.40;;;;;;;-0.56;93.17;101923.81;5015908;28;20365;-74
2024/01/20 08:58:27;;;;;;;15.50;9.37;;;;;;;-0.54;92.73;101925.56;5024820;28;20199;-75
2024/01/20 09:00:53;;;;;;;15.57;8.87;;;;;;;-0.48;92.39;101922.06;5020788;28;20221;-74
2024/01/20 09:03:19;;;;;;;15.37;8.73;;;;;;;-0.46;92.74;101923.81;5021834;28;20218;-75
2024/01/20 09:05:46;;;;;;;14.00;8.70;;;;;;;-0.39;92.18;101927.34;5023519;28;20226;-74
2024/01/20 09:08:13;;;;;;;12.40;8.30;;;;;;;-0.38;92.01;101932.56;5028915;28;20226;-75
2024/01/20 09:10:40;;;;;;;15.67;9.20;;;;;;;-0.34;91.92;101930.81;5023583;28;20213;-74
2024/01/20 09:13:07;;;;;;;19.23;9.37;;;;;;;-0.30;91.57;101932.56;5020935;28;20228;-74
2024/01/20 09:15:35;;;;;;;18.27;10.23;;;;;;;-0.26;91.33;101929.09;5018728;28;20244;-74
2024/01/20 09:18:02;;;;;;;13.80;6.73;;;;;;;-0.21;91.04;101935.22;5027475;28;20209;-74
2024/01/20 09:20:28;;;;;;;12.93;7.83;;;;;;;-0.14;90.71;101936.06;5027776;28;20771;-74
2024/01/20 09:22:55;;;;;;;14.50;7.00;;;;;;;-0.07;90.34;101933.47;5020282;28;20673;-75
2024/01/20 09:25:21;;;;;;;13.17;8.10;;;;;;;-0.06;89.94;101947.44;5021679;28;20203;-75
2024/01/20 09:27:48;;;;;;;13.53;8.07;;;;;;;-0.03;89.90;101948.31;5027143;28;20661;-74
2024/01/20 09:30:14;;;;;;;15.80;9.03;;;;;;;0.04;89.26;101938.72;5025400;28;20624;-75
2024/01/20 09:32:42;;;;;;;15.03;8.13;;;;;;;0.09;88.66;101942.22;5028149;28;20230;-74
2024/01/20 09:35:09;;;;;;;16.23;8.57;;;;;;;0.12;88.60;101957.06;5024547;28;20222;-74
2024/01/20 09:37:37;;;;;;;12.33;7.30;;;;;;;0.20;88.35;101944.81;5023180;28;20219;-74
2024/01/20 09:40:05;;;;;;;14.13;8.50;;;;;;;0.22;88.12;101964.03;5028327;28;20618;-74
2024/01/20 09:42:31;;;;;;;12.90;7.83;;;;;;;0.30;87.43;101957.06;5023795;28;20229;-74
2024/01/20 09:44:59;;;;;;;15.57;8.00;;;;;;;0.36;87.26;101953.56;5028125;28;20201;-75
2024/01/20 09:47:25;;;;;;;13.93;7.17;;;;;;;0.38;87.13;101971.00;5018452;28;20226;-74
2024/01/20 09:49:53;;;;;;;15.10;8.60;;;;;;;0.41;86.13;101967.53;5026259;28;20199;-75
2024/01/20 09:52:28;;;;;;;13.07;7.23;;;;;;;0.40;86.22;101963.16;5031232;28;20209;-75
2024/01/20 09:55:09;;;;;;;14.37;6.37;;;;;;;0.44;85.92;101971.03;5019961;28;20568;-75
2024/01/20 09:57:37;;;;;;;16.70;8.37;;;;;;;0.46;85.95;101969.28;5025256;28;20220;-74
2024/01/20 10:00:04;;;;;;;11.63;7.10;;;;;;;0.46;86.15;101973.66;5023158;28;20218;-74
2024/01/20 10:02:34;;;;;;;9.53;5.80;;;;;;;0.50;86.15;101971.03;5023226;28;20198;-76
2024/01/20 10:05:04;;;;;;;12.57;7.43;;;;;;;0.51;85.56;101961.41;5014653;28;20203;-75
2024/01/20 10:07:31;;;;;;;13.87;7.93;;;;;;;0.52;85.52;101966.66;5018191;28;20243;-74
2024/01/20 10:09:58;;;;;;;10.93;7.33;;;;;;;0.55;85.24;101966.63;5023881;28;20202;-75
2024/01/20 10:12:24;;;;;;;12.73;7.60;;;;;;;0.58;85.19;101969.25;5024829;28;20203;-75
2024/01/20 10:14:51;;;;;;;14.73;7.53;;;;;;;0.62;84.93;101965.75;5024023;28;20293;-74
2024/01/20 10:17:18;;;;;;;13.20;7.10;;;;;;;0.63;84.74;101971.88;5019752;28;20241;-76
2024/01/20 10:19:44;;;;;;;12.90;7.00;;;;;;;0.65;84.27;101971.00;5014411;28;20682;-75
2024/01/20 10:22:13;;;;;;;11.13;7.67;;;;;;;0.71;84.54;101967.50;5026855;28;20206;-77
2024/01/20 10:24:46;;;;;;;11.73;7.10;;;;;;;0.73;84.26;101964.84;5012530;28;20221;-74
2024/01/20 10:27:16;;;;;;;12.93;7.30;;;;;;;0.77;84.47;101971.84;5013579;28;20218;-73
2024/01/20 10:29:42;;;;;;;13.30;7.07;;;;;;;0.77;83.93;101979.72;5021196;28;20198;-75
2024/01/20 10:32:09;;;;;;;13.63;5.87;;;;;;;0.82;83.72;101970.97;5022834;28;20215;-74
2024/01/20 10:34:35;;;;;;;14.13;6.93;;;;;;;0.82;83.30;101962.22;5024911;28;20245;-75
2024/01/20 10:37:06;;;;;;;11.03;7.00;;;;;;;0.79;83.22;101959.59;5030735;28;20254;-74
2024/01/20 10:39:41;;;;;;;13.37;7.07;;;;;;;0.82;83.73;101970.97;5015581;28;20229;-75
2024/01/20 10:42:10;;;;;;;12.50;7.47;;;;;;;0.85;83.34;101964.84;5018530;28;20284;-74
2024/01/20 10:44:39;;;;;;;12.57;7.17;;;;;;;0.87;82.92;101965.72;5022340;28;20209;-74
2024/01/20 10:47:15;;;;;;;12.77;6.87;;;;;;;0.88;83.26;101956.97;5018502;28;20593;-74
2024/01/20 10:49:45;;;;;;;11.60;7.10;;;;;;;0.87;82.84;101956.09;5020541;28;20206;-75
2024/01/20 10:52:12;;;;;;;10.10;6.00;;;;;;;0.89;82.81;101951.72;5021181;28;20194;-75
2024/01/20 10:54:43;;;;;;;14.17;7.87;;;;;;;0.89;82.84;101956.09;5019111;28;20233;-74
2024/01/20 10:57:10;;;;;;;13.03;7.43;;;;;;;0.94;82.30;101959.56;5025533;28;20230;-75
2024/01/20 10:59:40;;;;;;;12.83;7.47;;;;;;;0.98;82.14;101964.81;5017408;28;20213;-73
2024/01/20 11:02:08;;;;;;;16.80;7.40;;;;;;;0.96;81.98;101960.44;5018685;28;20214;-74
2024/01/20 11:04:37;;;;;;;13.40;7.43;;;;;;;0.97;82.24;101967.44;5021291;28;20587;-75
2024/01/20 11:07:04;;;;;;;9.83;5.70;;;;;;;0.99;82.17;101974.41;5022291;28;20226;-75
2024/01/20 11:09:30;;;;;;;10.40;6.80;;;;;;;0.92;82.10;101975.31;5013719;28;20670;-75
2024/01/20 11:12:03;;;;;;;9.10;6.03;;;;;;;0.90;82.34;101965.69;5026634;28;20560;-73
2024/01/20 11:14:30;;;;;;;12.07;6.33;;;;;;;0.93;82.35;101965.69;5014510;28;20770;-74
2024/01/20 11:16:57;;;;;;;9.73;6.43;;;;;;;0.96;82.65;101961.31;5012781;28;20225;-74